sensor_id;sensor_type;location;lat;lon;timestamp;P1;durP1;ratioP1;P2;durP2;ratioP2
73599;SDS011;61877;48.246;9.220;2024-02-21T00:00:47;11.95;;;5.82;;
73599;SDS011;61877;48.246;9.220;2024-02-21T00:03:14;11.68;;;5.53;;
73599;SDS011;61877;48.246;9.220;2024-02-21T00:05:43;11.40;;;5.45;;
73599;SDS011;61877;48.246;9.220;2024-02-21T00:08:09;11.70;;;6.00;;
73599;SDS011;61877;48.246;9.220;2024-02-21T00:10:36;13.53;;;5.63;;
73599;SDS011;61877;48.246;9.220;2024-02-21T00:13:03;14.52;;;5.88;;
73599;SDS011;61877;48.246;9.220;2024-02-21T00:15:29;11.93;;;6.05;;
73599;SDS011;61877;48.246;9.220;2024-02-21T00:17:56;13.77;;;6.05;;
73599;SDS011;61877;48.246;9.220;2024-02-21T00:20:22;13.68;;;6.18;;
73599;SDS011;61877;48.246;9.220;2024-02-21T00:22:50;12.13;;;5.23;;
73599;SDS011;61877;48.246;9.220;2024-02-21T00:25:17;14.18;;;5.97;;
73599;SDS011;61877;48.246;9.220;2024-02-21T00:27:44;13.57;;;6.30;;
73599;SDS011;61877;48.246;9.220;2024-02-21T00:30:11;12.07;;;5.82;;
73599;SDS011;61877;48.246;9.220;2024-02-21T00:32:38;13.40;;;5.97;;
73599;SDS011;61877;48.246;9.220;2024-02-21T00:35:07;15.93;;;6.60;;
73599;SDS011;61877;48.246;9.220;2024-02-21T00:37:34;13.25;;;6.40;;
73599;SDS011;61877;48.246;9.220;2024-02-21T00:40:02;13.00;;;6.40;;
73599;SDS011;61877;48.246;9.220;2024-02-21T00:42:29;15.65;;;6.55;;
73599;SDS011;61877;48.246;9.220;2024-02-21T00:44:56;12.52;;;6.30;;
73599;SDS011;61877;48.246;9.220;2024-02-21T00:47:22;12.97;;;5.93;;
73599;SDS011;61877;48.246;9.220;2024-02-21T00:49:49;14.25;;;6.60;;
73599;SDS011;61877;48.246;9.220;2024-02-21T00:52:16;15.07;;;6.75;;
73599;SDS011;61877;48.246;9.220;2024-02-21T00:54:42;14.57;;;6.78;;
73599;SDS011;61877;48.246;9.220;2024-02-21T00:57:20;15.52;;;6.90;;
73599;SDS011;61877;48.246;9.220;2024-02-21T00:59:47;15.50;;;7.13;;
73599;SDS011;61877;48.246;9.220;2024-02-21T01:02:13;13.68;;;6.82;;
73599;SDS011;61877;48.246;9.220;2024-02-21T01:04:41;14.73;;;6.50;;
73599;SDS011;61877;48.246;9.220;2024-02-21T01:07:07;12.75;;;6.25;;
73599;SDS011;61877;48.246;9.220;2024-02-21T01:09:34;15.27;;;7.05;;
73599;SDS011;61877;48.246;9.220;2024-02-21T01:12:00;15.60;;;6.47;;
73599;SDS011;61877;48.246;9.220;2024-02-21T01:14:31;17.00;;;7.22;;
73599;SDS011;61877;48.246;9.220;2024-02-21T01:16:58;14.43;;;7.45;;
73599;SDS011;61877;48.246;9.220;2024-02-21T01:19:24;16.10;;;7.43;;
73599;SDS011;61877;48.246;9.220;2024-02-21T01:21:51;13.07;;;6.90;;
73599;SDS011;61877;48.246;9.220;2024-02-21T01:24:18;15.83;;;7.07;;
73599;SDS011;61877;48.246;9.220;2024-02-21T01:26:45;15.75;;;6.90;;
73599;SDS011;61877;48.246;9.220;2024-02-21T01:29:11;21.73;;;8.65;;
73599;SDS011;61877;48.246;9.220;2024-02-21T01:31:39;13.68;;;6.85;;
73599;SDS011;61877;48.246;9.220;2024-02-21T01:34:06;14.45;;;6.57;;
73599;SDS011;61877;48.246;9.220;2024-02-21T01:36:33;13.47;;;6.40;;
73599;SDS011;61877;48.246;9.220;2024-02-21T01:39:00;14.30;;;6.53;;
73599;SDS011;61877;48.246;9.220;2024-02-21T01:41:26;15.02;;;7.00;;
73599;SDS011;61877;48.246;9.220;2024-02-21T01:43:56;15.40;;;6.85;;
73599;SDS011;61877;48.246;9.220;2024-02-21T01:46:23;15.68;;;6.40;;
73599;SDS011;61877;48.246;9.220;2024-02-21T01:48:51;14.83;;;6.80;;
73599;SDS011;61877;48.246;9.220;2024-02-21T01:51:18;13.40;;;6.78;;
73599;SDS011;61877;48.246;9.220;2024-02-21T01:53:45;16.67;;;6.82;;
73599;SDS011;61877;48.246;9.220;2024-02-21T01:56:12;17.52;;;6.68;;
73599;SDS011;61877;48.246;9.220;2024-02-21T01:58:40;17.15;;;6.55;;
73599;SDS011;61877;48.246;9.220;2024-02-21T02:01:09;15.40;;;6.73;;
73599;SDS011;61877;48.246;9.220;2024-02-21T02:03:38;12.90;;;6.57;;
73599;SDS011;61877;48.246;9.220;2024-02-21T02:06:07;14.50;;;7.00;;
73599;SDS011;61877;48.246;9.220;2024-02-21T02:08:33;13.32;;;6.22;;
73599;SDS011;61877;48.246;9.220;2024-02-21T02:11:00;14.00;;;6.60;;
73599;SDS011;61877;48.246;9.220;2024-02-21T02:13:27;14.67;;;6.57;;
73599;SDS011;61877;48.246;9.220;2024-02-21T02:15:54;15.23;;;6.57;;
73599;SDS011;61877;48.246;9.220;2024-02-21T02:18:21;14.13;;;6.75;;
73599;SDS011;61877;48.246;9.220;2024-02-21T02:20:48;13.80;;;6.80;;
73599;SDS011;61877;48.246;9.220;2024-02-21T02:23:19;15.13;;;6.68;;
73599;SDS011;61877;48.246;9.220;2024-02-21T02:25:48;14.33;;;6.30;;
73599;SDS011;61877;48.246;9.220;2024-02-21T02:28:16;16.40;;;6.68;;
73599;SDS011;61877;48.246;9.220;2024-02-21T02:30:43;14.23;;;6.53;;
73599;SDS011;61877;48.246;9.220;2024-02-21T02:33:09;12.40;;;6.60;;
73599;SDS011;61877;48.246;9.220;2024-02-21T02:35:36;15.05;;;7.22;;
73599;SDS011;61877;48.246;9.220;2024-02-21T02:38:03;15.20;;;6.60;;
73599;SDS011;61877;48.246;9.220;2024-02-21T02:40:33;13.68;;;6.43;;
73599;SDS011;61877;48.246;9.220;2024-02-21T02:43:00;14.50;;;6.47;;
73599;SDS011;61877;48.246;9.220;2024-02-21T02:45:26;12.57;;;6.45;;
73599;SDS011;61877;48.246;9.220;2024-02-21T02:47:53;16.13;;;6.90;;
73599;SDS011;61877;48.246;9.220;2024-02-21T02:50:21;13.27;;;5.73;;
73599;SDS011;61877;48.246;9.220;2024-02-21T02:52:47;16.17;;;6.18;;
73599;SDS011;61877;48.246;9.220;2024-02-21T02:55:14;12.95;;;6.50;;
73599;SDS011;61877;48.246;9.220;2024-02-21T02:57:42;14.68;;;6.53;;
73599;SDS011;61877;48.246;9.220;2024-02-21T03:00:10;14.02;;;6.22;;
73599;SDS011;61877;48.246;9.220;2024-02-21T03:02:38;16.13;;;6.27;;
73599;SDS011;61877;48.246;9.220;2024-02-21T03:05:11;12.25;;;6.10;;
73599;SDS011;61877;48.246;9.220;2024-02-21T03:07:39;13.48;;;6.20;;
73599;SDS011;61877;48.246;9.220;2024-02-21T03:10:06;14.05;;;6.40;;
73599;SDS011;61877;48.246;9.220;2024-02-21T03:12:33;12.75;;;6.07;;
73599;SDS011;61877;48.246;9.220;2024-02-21T03:15:02;13.23;;;6.67;;
73599;SDS011;61877;48.246;9.220;2024-02-21T03:17:32;14.05;;;5.90;;
73599;SDS011;61877;48.246;9.220;2024-02-21T03:19:59;13.60;;;6.75;;
73599;SDS011;61877;48.246;9.220;2024-02-21T03:22:32;13.88;;;6.53;;
73599;SDS011;61877;48.246;9.220;2024-02-21T03:24:59;13.77;;;6.70;;
73599;SDS011;61877;48.246;9.220;2024-02-21T03:27:26;13.17;;;5.83;;
73599;SDS011;61877;48.246;9.220;2024-02-21T03:29:53;14.55;;;6.68;;
73599;SDS011;61877;48.246;9.220;2024-02-21T03:32:21;13.55;;;6.68;;
73599;SDS011;61877;48.246;9.220;2024-02-21T03:34:48;13.13;;;6.63;;
73599;SDS011;61877;48.246;9.220;2024-02-21T03:37:14;12.73;;;6.03;;
73599;SDS011;61877;48.246;9.220;2024-02-21T03:39:41;14.53;;;6.63;;
73599;SDS011;61877;48.246;9.220;2024-02-21T03:42:08;13.05;;;5.93;;
73599;SDS011;61877;48.246;9.220;2024-02-21T03:44:37;13.27;;;6.20;;
73599;SDS011;61877;48.246;9.220;2024-02-21T03:47:04;11.85;;;6.40;;
73599;SDS011;61877;48.246;9.220;2024-02-21T03:49:43;13.10;;;5.93;;
73599;SDS011;61877;48.246;9.220;2024-02-21T03:52:14;12.07;;;5.40;;
73599;SDS011;61877;48.246;9.220;2024-02-21T03:54:44;12.27;;;6.00;;
73599;SDS011;61877;48.246;9.220;2024-02-21T03:57:15;13.38;;;6.05;;
73599;SDS011;61877;48.246;9.220;2024-02-21T03:59:44;12.52;;;5.78;;
73599;SDS011;61877;48.246;9.220;2024-02-21T04:02:12;15.05;;;6.53;;
73599;SDS011;61877;48.246;9.220;2024-02-21T04:04:45;14.10;;;6.17;;
73599;SDS011;61877;48.246;9.220;2024-02-21T04:07:13;12.60;;;5.60;;
73599;SDS011;61877;48.246;9.220;2024-02-21T04:09:41;12.45;;;5.82;;
73599;SDS011;61877;48.246;9.220;2024-02-21T04:12:13;13.38;;;6.00;;
73599;SDS011;61877;48.246;9.220;2024-02-21T04:14:43;14.38;;;6.68;;
73599;SDS011;61877;48.246;9.220;2024-02-21T04:17:17;11.17;;;5.47;;
73599;SDS011;61877;48.246;9.220;2024-02-21T04:19:48;15.90;;;6.05;;
73599;SDS011;61877;48.246;9.220;2024-02-21T04:22:27;13.20;;;6.70;;
73599;SDS011;61877;48.246;9.220;2024-02-21T04:24:57;13.27;;;5.95;;
73599;SDS011;61877;48.246;9.220;2024-02-21T04:27:26;13.68;;;6.57;;
73599;SDS011;61877;48.246;9.220;2024-02-21T04:29:59;14.40;;;7.40;;
73599;SDS011;61877;48.246;9.220;2024-02-21T04:32:30;13.63;;;6.78;;
73599;SDS011;61877;48.246;9.220;2024-02-21T04:35:05;13.80;;;6.95;;
73599;SDS011;61877;48.246;9.220;2024-02-21T04:37:35;15.38;;;6.97;;
73599;SDS011;61877;48.246;9.220;2024-02-21T04:40:06;14.82;;;7.10;;
73599;SDS011;61877;48.246;9.220;2024-02-21T04:42:37;13.10;;;6.10;;
73599;SDS011;61877;48.246;9.220;2024-02-21T04:45:11;13.00;;;6.18;;
73599;SDS011;61877;48.246;9.220;2024-02-21T04:47:50;13.73;;;6.38;;
73599;SDS011;61877;48.246;9.220;2024-02-21T04:50:22;13.30;;;5.57;;
73599;SDS011;61877;48.246;9.220;2024-02-21T04:52:53;14.27;;;6.22;;
73599;SDS011;61877;48.246;9.220;2024-02-21T04:55:24;13.13;;;5.60;;
73599;SDS011;61877;48.246;9.220;2024-02-21T04:57:52;13.18;;;6.13;;
73599;SDS011;61877;48.246;9.220;2024-02-21T05:00:29;15.43;;;7.40;;
73599;SDS011;61877;48.246;9.220;2024-02-21T05:02:59;15.07;;;7.22;;
73599;SDS011;61877;48.246;9.220;2024-02-21T05:05:29;14.90;;;7.13;;
73599;SDS011;61877;48.246;9.220;2024-02-21T05:07:59;12.93;;;6.57;;
73599;SDS011;61877;48.246;9.220;2024-02-21T05:10:28;17.02;;;7.25;;
73599;SDS011;61877;48.246;9.220;2024-02-21T05:12:56;14.18;;;6.95;;
73599;SDS011;61877;48.246;9.220;2024-02-21T05:15:25;13.15;;;6.65;;
73599;SDS011;61877;48.246;9.220;2024-02-21T05:18:01;14.57;;;6.60;;
73599;SDS011;61877;48.246;9.220;2024-02-21T05:20:48;14.50;;;6.60;;
73599;SDS011;61877;48.246;9.220;2024-02-21T05:23:21;14.32;;;6.38;;
73599;SDS011;61877;48.246;9.220;2024-02-21T05:25:58;11.90;;;5.82;;
73599;SDS011;61877;48.246;9.220;2024-02-21T05:28:33;13.40;;;5.40;;
73599;SDS011;61877;48.246;9.220;2024-02-21T05:31:06;12.65;;;5.63;;
73599;SDS011;61877;48.246;9.220;2024-02-21T05:33:47;12.63;;;5.13;;
73599;SDS011;61877;48.246;9.220;2024-02-21T05:36:21;12.48;;;5.20;;
73599;SDS011;61877;48.246;9.220;2024-02-21T05:38:58;13.75;;;5.75;;
73599;SDS011;61877;48.246;9.220;2024-02-21T05:41:43;12.15;;;5.10;;
73599;SDS011;61877;48.246;9.220;2024-02-21T05:44:17;12.00;;;5.60;;
73599;SDS011;61877;48.246;9.220;2024-02-21T05:46:51;12.20;;;5.47;;
73599;SDS011;61877;48.246;9.220;2024-02-21T05:49:35;11.75;;;5.47;;
73599;SDS011;61877;48.246;9.220;2024-02-21T05:52:10;12.32;;;6.60;;
73599;SDS011;61877;48.246;9.220;2024-02-21T05:55:04;17.77;;;7.32;;
73599;SDS011;61877;48.246;9.220;2024-02-21T05:57:45;22.02;;;10.45;;
73599;SDS011;61877;48.246;9.220;2024-02-21T06:00:25;27.50;;;11.80;;
73599;SDS011;61877;48.246;9.220;2024-02-21T06:03:01;22.83;;;9.40;;
73599;SDS011;61877;48.246;9.220;2024-02-21T06:05:38;20.63;;;8.27;;
73599;SDS011;61877;48.246;9.220;2024-02-21T06:08:13;18.08;;;7.07;;
73599;SDS011;61877;48.246;9.220;2024-02-21T06:10:44;17.35;;;7.85;;
73599;SDS011;61877;48.246;9.220;2024-02-21T06:13:13;14.20;;;5.00;;
73599;SDS011;61877;48.246;9.220;2024-02-21T06:15:45;13.88;;;5.38;;
73599;SDS011;61877;48.246;9.220;2024-02-21T06:18:26;13.63;;;5.43;;
73599;SDS011;61877;48.246;9.220;2024-02-21T06:20:57;13.68;;;5.35;;
73599;SDS011;61877;48.246;9.220;2024-02-21T06:23:28;13.70;;;5.25;;
73599;SDS011;61877;48.246;9.220;2024-02-21T06:25:59;13.87;;;5.03;;
73599;SDS011;61877;48.246;9.220;2024-02-21T06:28:35;13.10;;;5.18;;
73599;SDS011;61877;48.246;9.220;2024-02-21T06:31:11;13.15;;;4.88;;
73599;SDS011;61877;48.246;9.220;2024-02-21T06:34:00;12.68;;;5.35;;
73599;SDS011;61877;48.246;9.220;2024-02-21T06:36:28;13.73;;;5.30;;
73599;SDS011;61877;48.246;9.220;2024-02-21T06:41:48;13.48;;;5.20;;
73599;SDS011;61877;48.246;9.220;2024-02-21T06:44:29;12.95;;;5.63;;
73599;SDS011;61877;48.246;9.220;2024-02-21T06:46:58;13.65;;;5.95;;
73599;SDS011;61877;48.246;9.220;2024-02-21T06:49:26;14.23;;;6.55;;
73599;SDS011;61877;48.246;9.220;2024-02-21T06:51:59;13.90;;;5.60;;
73599;SDS011;61877;48.246;9.220;2024-02-21T06:54:50;12.80;;;5.80;;
73599;SDS011;61877;48.246;9.220;2024-02-21T06:57:35;12.30;;;5.40;;
73599;SDS011;61877;48.246;9.220;2024-02-21T07:00:02;14.02;;;5.43;;
73599;SDS011;61877;48.246;9.220;2024-02-21T07:02:31;12.38;;;5.35;;
73599;SDS011;61877;48.246;9.220;2024-02-21T07:05:01;14.53;;;6.10;;
73599;SDS011;61877;48.246;9.220;2024-02-21T07:07:32;14.52;;;5.13;;
73599;SDS011;61877;48.246;9.220;2024-02-21T07:10:01;12.82;;;5.63;;
73599;SDS011;61877;48.246;9.220;2024-02-21T07:12:28;10.68;;;4.75;;
73599;SDS011;61877;48.246;9.220;2024-02-21T07:14:57;12.32;;;4.88;;
73599;SDS011;61877;48.246;9.220;2024-02-21T07:17:24;12.83;;;5.40;;
73599;SDS011;61877;48.246;9.220;2024-02-21T07:20:00;12.93;;;5.13;;
73599;SDS011;61877;48.246;9.220;2024-02-21T07:22:46;15.05;;;6.20;;
73599;SDS011;61877;48.246;9.220;2024-02-21T07:28:12;12.40;;;5.60;;
73599;SDS011;61877;48.246;9.220;2024-02-21T07:30:51;12.57;;;5.50;;
73599;SDS011;61877;48.246;9.220;2024-02-21T07:33:17;15.30;;;6.40;;
73599;SDS011;61877;48.246;9.220;2024-02-21T07:35:49;12.93;;;5.60;;
73599;SDS011;61877;48.246;9.220;2024-02-21T07:38:15;12.90;;;5.50;;
73599;SDS011;61877;48.246;9.220;2024-02-21T07:40:44;14.50;;;6.00;;
73599;SDS011;61877;48.246;9.220;2024-02-21T07:43:11;12.10;;;5.50;;
73599;SDS011;61877;48.246;9.220;2024-02-21T07:45:38;10.13;;;4.72;;
73599;SDS011;61877;48.246;9.220;2024-02-21T07:48:05;15.68;;;6.20;;
73599;SDS011;61877;48.246;9.220;2024-02-21T07:50:32;13.23;;;5.75;;
73599;SDS011;61877;48.246;9.220;2024-02-21T07:53:00;15.65;;;7.00;;
73599;SDS011;61877;48.246;9.220;2024-02-21T07:55:27;18.17;;;7.57;;
73599;SDS011;61877;48.246;9.220;2024-02-21T07:57:55;17.08;;;8.93;;
73599;SDS011;61877;48.246;9.220;2024-02-21T08:00:24;20.02;;;10.02;;
73599;SDS011;61877;48.246;9.220;2024-02-21T08:02:51;20.65;;;10.23;;
73599;SDS011;61877;48.246;9.220;2024-02-21T08:05:18;20.73;;;9.32;;
73599;SDS011;61877;48.246;9.220;2024-02-21T08:07:45;17.63;;;7.90;;
73599;SDS011;61877;48.246;9.220;2024-02-21T08:10:12;18.48;;;7.80;;
73599;SDS011;61877;48.246;9.220;2024-02-21T08:12:39;17.67;;;8.05;;
73599;SDS011;61877;48.246;9.220;2024-02-21T08:15:07;17.38;;;6.97;;
73599;SDS011;61877;48.246;9.220;2024-02-21T08:17:35;14.88;;;7.03;;
73599;SDS011;61877;48.246;9.220;2024-02-21T08:20:02;13.80;;;6.30;;
73599;SDS011;61877;48.246;9.220;2024-02-21T08:22:29;15.05;;;6.40;;
73599;SDS011;61877;48.246;9.220;2024-02-21T08:24:55;17.08;;;6.60;;
73599;SDS011;61877;48.246;9.220;2024-02-21T08:27:22;12.93;;;6.35;;
73599;SDS011;61877;48.246;9.220;2024-02-21T08:29:49;12.90;;;5.72;;
73599;SDS011;61877;48.246;9.220;2024-02-21T08:32:16;12.70;;;5.27;;
73599;SDS011;61877;48.246;9.220;2024-02-21T08:34:43;12.38;;;5.00;;
73599;SDS011;61877;48.246;9.220;2024-02-21T08:37:10;14.10;;;4.93;;
73599;SDS011;61877;48.246;9.220;2024-02-21T08:39:37;13.75;;;4.90;;
73599;SDS011;61877;48.246;9.220;2024-02-21T08:42:04;11.75;;;4.90;;
73599;SDS011;61877;48.246;9.220;2024-02-21T08:44:30;14.20;;;4.83;;
73599;SDS011;61877;48.246;9.220;2024-02-21T08:46:57;11.02;;;4.40;;
73599;SDS011;61877;48.246;9.220;2024-02-21T08:49:25;11.70;;;4.57;;
73599;SDS011;61877;48.246;9.220;2024-02-21T08:51:55;10.27;;;3.80;;
73599;SDS011;61877;48.246;9.220;2024-02-21T08:54:21;11.43;;;4.18;;
73599;SDS011;61877;48.246;9.220;2024-02-21T08:56:48;11.67;;;4.03;;
73599;SDS011;61877;48.246;9.220;2024-02-21T08:59:16;10.73;;;3.97;;
73599;SDS011;61877;48.246;9.220;2024-02-21T09:01:43;9.65;;;4.10;;
73599;SDS011;61877;48.246;9.220;2024-02-21T09:04:10;12.23;;;4.20;;
73599;SDS011;61877;48.246;9.220;2024-02-21T09:06:38;9.73;;;4.10;;
73599;SDS011;61877;48.246;9.220;2024-02-21T09:09:05;12.00;;;4.60;;
73599;SDS011;61877;48.246;9.220;2024-02-21T09:11:31;11.20;;;4.00;;
73599;SDS011;61877;48.246;9.220;2024-02-21T09:13:58;10.50;;;4.18;;
73599;SDS011;61877;48.246;9.220;2024-02-21T09:16:25;10.13;;;3.90;;
73599;SDS011;61877;48.246;9.220;2024-02-21T09:18:51;11.65;;;4.30;;
73599;SDS011;61877;48.246;9.220;2024-02-21T09:21:18;10.97;;;4.10;;
73599;SDS011;61877;48.246;9.220;2024-02-21T09:23:46;12.00;;;4.00;;
73599;SDS011;61877;48.246;9.220;2024-02-21T09:26:12;10.63;;;4.00;;
73599;SDS011;61877;48.246;9.220;2024-02-21T09:28:41;10.73;;;3.95;;
73599;SDS011;61877;48.246;9.220;2024-02-21T09:31:08;9.43;;;4.10;;
73599;SDS011;61877;48.246;9.220;2024-02-21T09:33:35;10.03;;;4.00;;
73599;SDS011;61877;48.246;9.220;2024-02-21T09:36:02;10.07;;;4.00;;
73599;SDS011;61877;48.246;9.220;2024-02-21T09:38:33;8.75;;;3.88;;
73599;SDS011;61877;48.246;9.220;2024-02-21T09:41:03;10.73;;;4.22;;
73599;SDS011;61877;48.246;9.220;2024-02-21T09:43:41;10.73;;;4.45;;
73599;SDS011;61877;48.246;9.220;2024-02-21T09:46:11;8.90;;;3.80;;
73599;SDS011;61877;48.246;9.220;2024-02-21T09:48:44;9.82;;;3.78;;
73599;SDS011;61877;48.246;9.220;2024-02-21T09:51:23;9.25;;;3.83;;
73599;SDS011;61877;48.246;9.220;2024-02-21T09:53:51;10.90;;;4.28;;
73599;SDS011;61877;48.246;9.220;2024-02-21T09:56:38;10.23;;;4.00;;
73599;SDS011;61877;48.246;9.220;2024-02-21T09:59:07;10.73;;;4.17;;
73599;SDS011;61877;48.246;9.220;2024-02-21T10:01:34;11.93;;;4.00;;
73599;SDS011;61877;48.246;9.220;2024-02-21T10:04:02;10.13;;;4.00;;
73599;SDS011;61877;48.246;9.220;2024-02-21T10:06:30;11.15;;;4.10;;
73599;SDS011;61877;48.246;9.220;2024-02-21T10:08:57;9.02;;;3.70;;
73599;SDS011;61877;48.246;9.220;2024-02-21T10:11:24;10.23;;;3.70;;
73599;SDS011;61877;48.246;9.220;2024-02-21T10:14:02;11.25;;;3.75;;
73599;SDS011;61877;48.246;9.220;2024-02-21T10:16:29;9.10;;;3.75;;
73599;SDS011;61877;48.246;9.220;2024-02-21T10:18:55;9.98;;;4.00;;
73599;SDS011;61877;48.246;9.220;2024-02-21T10:21:22;10.98;;;4.03;;
73599;SDS011;61877;48.246;9.220;2024-02-21T10:23:49;8.87;;;3.73;;
73599;SDS011;61877;48.246;9.220;2024-02-21T10:26:17;9.32;;;3.85;;
73599;SDS011;61877;48.246;9.220;2024-02-21T10:28:44;9.48;;;3.88;;
73599;SDS011;61877;48.246;9.220;2024-02-21T10:31:21;9.50;;;3.90;;
73599;SDS011;61877;48.246;9.220;2024-02-21T10:33:53;8.82;;;3.88;;
73599;SDS011;61877;48.246;9.220;2024-02-21T10:36:23;10.27;;;3.60;;
73599;SDS011;61877;48.246;9.220;2024-02-21T10:38:50;7.90;;;3.22;;
73599;SDS011;61877;48.246;9.220;2024-02-21T10:41:18;9.75;;;3.30;;
73599;SDS011;61877;48.246;9.220;2024-02-21T10:43:48;8.63;;;3.20;;
73599;SDS011;61877;48.246;9.220;2024-02-21T10:46:19;8.60;;;3.00;;
73599;SDS011;61877;48.246;9.220;2024-02-21T10:48:47;8.70;;;3.00;;
73599;SDS011;61877;48.246;9.220;2024-02-21T10:51:19;8.18;;;3.20;;
73599;SDS011;61877;48.246;9.220;2024-02-21T10:53:49;7.53;;;2.90;;
73599;SDS011;61877;48.246;9.220;2024-02-21T10:56:25;7.05;;;2.30;;
73599;SDS011;61877;48.246;9.220;2024-02-21T10:58:55;7.00;;;2.58;;
73599;SDS011;61877;48.246;9.220;2024-02-21T11:01:25;7.90;;;2.57;;
73599;SDS011;61877;48.246;9.220;2024-02-21T11:03:54;7.60;;;2.63;;
73599;SDS011;61877;48.246;9.220;2024-02-21T11:06:23;7.07;;;2.58;;
73599;SDS011;61877;48.246;9.220;2024-02-21T11:09:01;6.63;;;2.30;;
73599;SDS011;61877;48.246;9.220;2024-02-21T11:11:29;8.15;;;2.75;;
73599;SDS011;61877;48.246;9.220;2024-02-21T11:14:06;7.30;;;3.00;;
73599;SDS011;61877;48.246;9.220;2024-02-21T11:16:45;7.68;;;3.00;;
73599;SDS011;61877;48.246;9.220;2024-02-21T11:19:19;8.85;;;3.15;;
73599;SDS011;61877;48.246;9.220;2024-02-21T11:21:54;8.95;;;2.78;;
73599;SDS011;61877;48.246;9.220;2024-02-21T11:24:42;8.25;;;2.90;;
73599;SDS011;61877;48.246;9.220;2024-02-21T11:27:12;7.23;;;3.20;;
73599;SDS011;61877;48.246;9.220;2024-02-21T11:29:59;7.93;;;2.80;;
73599;SDS011;61877;48.246;9.220;2024-02-21T11:32:28;7.55;;;2.63;;
73599;SDS011;61877;48.246;9.220;2024-02-21T11:35:00;6.97;;;2.42;;
73599;SDS011;61877;48.246;9.220;2024-02-21T11:37:35;7.18;;;2.75;;
73599;SDS011;61877;48.246;9.220;2024-02-21T11:40:11;8.27;;;2.50;;
73599;SDS011;61877;48.246;9.220;2024-02-21T11:42:38;7.28;;;2.38;;
73599;SDS011;61877;48.246;9.220;2024-02-21T11:45:06;7.50;;;2.90;;
73599;SDS011;61877;48.246;9.220;2024-02-21T11:47:37;8.25;;;2.50;;
73599;SDS011;61877;48.246;9.220;2024-02-21T11:50:09;7.35;;;2.20;;
73599;SDS011;61877;48.246;9.220;2024-02-21T11:52:38;7.60;;;2.60;;
73599;SDS011;61877;48.246;9.220;2024-02-21T11:55:24;8.20;;;2.65;;
73599;SDS011;61877;48.246;9.220;2024-02-21T11:58:24;6.95;;;2.63;;
73599;SDS011;61877;48.246;9.220;2024-02-21T12:00:52;7.57;;;2.45;;
73599;SDS011;61877;48.246;9.220;2024-02-21T12:03:23;7.63;;;2.40;;
73599;SDS011;61877;48.246;9.220;2024-02-21T12:05:50;8.27;;;2.33;;
73599;SDS011;61877;48.246;9.220;2024-02-21T12:08:16;7.78;;;2.33;;
73599;SDS011;61877;48.246;9.220;2024-02-21T12:10:44;7.68;;;2.60;;
73599;SDS011;61877;48.246;9.220;2024-02-21T12:13:10;6.80;;;2.15;;
73599;SDS011;61877;48.246;9.220;2024-02-21T12:15:38;6.75;;;2.13;;
73599;SDS011;61877;48.246;9.220;2024-02-21T12:18:05;6.87;;;1.90;;
73599;SDS011;61877;48.246;9.220;2024-02-21T12:20:33;5.93;;;2.00;;
73599;SDS011;61877;48.246;9.220;2024-02-21T12:23:00;6.70;;;2.45;;
73599;SDS011;61877;48.246;9.220;2024-02-21T12:25:27;6.80;;;2.30;;
73599;SDS011;61877;48.246;9.220;2024-02-21T12:27:54;6.53;;;2.53;;
73599;SDS011;61877;48.246;9.220;2024-02-21T12:30:21;6.27;;;2.20;;
73599;SDS011;61877;48.246;9.220;2024-02-21T12:32:47;6.40;;;2.20;;
73599;SDS011;61877;48.246;9.220;2024-02-21T12:35:14;7.53;;;2.53;;
73599;SDS011;61877;48.246;9.220;2024-02-21T12:37:43;6.82;;;2.05;;
73599;SDS011;61877;48.246;9.220;2024-02-21T12:40:10;6.93;;;2.38;;
73599;SDS011;61877;48.246;9.220;2024-02-21T12:42:37;6.10;;;1.90;;
73599;SDS011;61877;48.246;9.220;2024-02-21T12:45:04;5.93;;;1.98;;
73599;SDS011;61877;48.246;9.220;2024-02-21T12:47:31;6.80;;;2.20;;
73599;SDS011;61877;48.246;9.220;2024-02-21T12:49:58;6.00;;;2.00;;
73599;SDS011;61877;48.246;9.220;2024-02-21T12:52:25;6.15;;;2.10;;
73599;SDS011;61877;48.246;9.220;2024-02-21T12:54:53;6.67;;;2.13;;
73599;SDS011;61877;48.246;9.220;2024-02-21T12:57:20;9.45;;;2.00;;
73599;SDS011;61877;48.246;9.220;2024-02-21T12:59:49;7.60;;;2.60;;
73599;SDS011;61877;48.246;9.220;2024-02-21T13:02:15;7.10;;;2.55;;
73599;SDS011;61877;48.246;9.220;2024-02-21T13:04:42;7.43;;;2.13;;
73599;SDS011;61877;48.246;9.220;2024-02-21T13:07:08;6.53;;;2.13;;
73599;SDS011;61877;48.246;9.220;2024-02-21T13:09:35;7.03;;;2.60;;
73599;SDS011;61877;48.246;9.220;2024-02-21T13:12:03;7.60;;;2.55;;
73599;SDS011;61877;48.246;9.220;2024-02-21T13:14:30;8.20;;;2.90;;
73599;SDS011;61877;48.246;9.220;2024-02-21T13:16:57;11.18;;;3.85;;
73599;SDS011;61877;48.246;9.220;2024-02-21T13:19:23;12.63;;;4.40;;
73599;SDS011;61877;48.246;9.220;2024-02-21T13:21:51;10.43;;;4.43;;
73599;SDS011;61877;48.246;9.220;2024-02-21T13:24:17;11.88;;;5.03;;
73599;SDS011;61877;48.246;9.220;2024-02-21T13:26:44;10.10;;;4.07;;
73599;SDS011;61877;48.246;9.220;2024-02-21T13:29:12;10.25;;;4.30;;
73599;SDS011;61877;48.246;9.220;2024-02-21T13:31:38;9.40;;;3.63;;
73599;SDS011;61877;48.246;9.220;2024-02-21T13:34:05;10.55;;;3.95;;
73599;SDS011;61877;48.246;9.220;2024-02-21T13:36:36;8.43;;;3.70;;
73599;SDS011;61877;48.246;9.220;2024-02-21T13:39:02;8.88;;;3.80;;
73599;SDS011;61877;48.246;9.220;2024-02-21T13:41:30;9.07;;;4.10;;
73599;SDS011;61877;48.246;9.220;2024-02-21T13:43:56;9.00;;;3.90;;
73599;SDS011;61877;48.246;9.220;2024-02-21T13:46:25;9.13;;;3.80;;
73599;SDS011;61877;48.246;9.220;2024-02-21T13:48:52;9.43;;;3.95;;
73599;SDS011;61877;48.246;9.220;2024-02-21T13:51:20;8.80;;;3.58;;
73599;SDS011;61877;48.246;9.220;2024-02-21T13:53:47;8.80;;;4.10;;
73599;SDS011;61877;48.246;9.220;2024-02-21T13:56:14;10.97;;;3.80;;
73599;SDS011;61877;48.246;9.220;2024-02-21T13:58:40;9.07;;;3.63;;
73599;SDS011;61877;48.246;9.220;2024-02-21T14:01:07;7.72;;;3.17;;
73599;SDS011;61877;48.246;9.220;2024-02-21T14:03:35;8.30;;;3.42;;
73599;SDS011;61877;48.246;9.220;2024-02-21T14:06:02;9.18;;;3.60;;
73599;SDS011;61877;48.246;9.220;2024-02-21T14:08:29;8.57;;;3.30;;
73599;SDS011;61877;48.246;9.220;2024-02-21T14:10:56;7.75;;;3.38;;
73599;SDS011;61877;48.246;9.220;2024-02-21T14:13:23;8.80;;;3.78;;
73599;SDS011;61877;48.246;9.220;2024-02-21T14:15:50;8.57;;;3.45;;
73599;SDS011;61877;48.246;9.220;2024-02-21T14:18:16;8.90;;;4.00;;
73599;SDS011;61877;48.246;9.220;2024-02-21T14:20:45;10.30;;;3.77;;
73599;SDS011;61877;48.246;9.220;2024-02-21T14:23:11;7.85;;;3.50;;
73599;SDS011;61877;48.246;9.220;2024-02-21T14:25:38;9.02;;;3.30;;
73599;SDS011;61877;48.246;9.220;2024-02-21T14:28:05;7.88;;;3.17;;
73599;SDS011;61877;48.246;9.220;2024-02-21T14:30:32;9.65;;;3.35;;
73599;SDS011;61877;48.246;9.220;2024-02-21T14:32:59;7.40;;;3.10;;
73599;SDS011;61877;48.246;9.220;2024-02-21T14:35:25;8.90;;;3.10;;
73599;SDS011;61877;48.246;9.220;2024-02-21T14:37:53;7.88;;;3.17;;
73599;SDS011;61877;48.246;9.220;2024-02-21T14:40:20;8.00;;;3.30;;
73599;SDS011;61877;48.246;9.220;2024-02-21T14:42:47;7.40;;;3.20;;
73599;SDS011;61877;48.246;9.220;2024-02-21T14:45:14;8.53;;;3.83;;
73599;SDS011;61877;48.246;9.220;2024-02-21T14:47:41;9.07;;;3.60;;
73599;SDS011;61877;48.246;9.220;2024-02-21T14:50:08;9.50;;;4.00;;
73599;SDS011;61877;48.246;9.220;2024-02-21T14:52:36;8.57;;;3.75;;
73599;SDS011;61877;48.246;9.220;2024-02-21T14:55:05;9.43;;;4.15;;
73599;SDS011;61877;48.246;9.220;2024-02-21T14:57:32;10.13;;;3.87;;